Latest Weather Observations for Cape Naturaliste

IDW60801

Issued at 9:53 am WST Tuesday 22 September 2020 (issued every 10 minutes, with the page automatically refreshed every 10 minutes)

About weather observations | Map of weather stations | Latest weather observations for WA | Other Formats
Station Details ID: 009519 Name: CAPE NATURALISTE Lat: -33.54 Lon: 115.02 Height: 109.0 m
Data from the previous 72 hours. | See also: Recent months at Cape Naturaliste
Date/Time
WST
Temp
°C
App
Temp
°C
Dew
Point
°C
Rel
Hum
%
Delta-T
°C
Wind Press
QNH
hPa
Press
MSL
hPa
Rain since
9am
mm
Dir  Spd
km/h
Gust
km/h
Spd
kts
Gust
kts
22/09:30am 17.3 14.0 9.7 61 4.0 SSW 17 22 9 12 1023.8 1023.8 0.0
22/09:00am 15.1 12.0 8.8 66 3.2 SW 15 22 8 12 1023.7 1023.7 0.4
22/08:30am 15.3 13.3 8.8 65 3.3 SW 9 11 5 6 1023.5 1023.5 0.4
22/08:00am 15.0 12.8 9.4 69 2.9 S 11 15 6 8 1023.3 1023.3 0.4
22/07:30am 14.1 12.6 10.5 79 1.9 SSE 9 11 5 6 1022.9 1022.9 0.4
22/07:00am 12.4 10.6 9.4 82 1.5 ESE 9 13 5 7 1022.5 1022.5 0.4
22/06:30am 12.3 8.8 8.6 78 1.8 SW 17 20 9 11 1022.2 1022.1 0.4
22/06:00am 12.6 8.8 9.2 80 1.7 SW 19 26 10 14 1021.9 1021.8 0.4
22/05:30am 12.6 8.7 9.6 82 1.5 SW 20 32 11 17 1021.5 1021.4 0.4
22/05:00am 13.9 10.3 10.7 81 1.7 SW 20 37 11 20 1021.2 1021.1 0.2
22/04:30am 13.3 10.0 9.4 77 2.0 SW 17 24 9 13 1020.9 1020.8 0.2
22/04:00am 13.5 9.6 9.4 76 2.1 SW 20 28 11 15 1020.7 1020.6 0.2
22/03:30am 13.7 10.1 9.7 77 2.1 SW 19 26 10 14 1020.6 1020.5 0.2
22/03:00am 13.5 9.9 9.7 78 2.0 SSW 19 26 10 14 1020.6 1020.5 0.2
22/02:30am 14.0 10.4 10.6 80 1.8 SSW 20 26 11 14 1020.6 1020.5 0.2
22/02:00am 14.0 10.5 10.8 81 1.7 SW 20 28 11 15 1020.7 1020.6 0.2
22/01:30am 13.8 10.3 10.8 82 1.6 SW 20 28 11 15 1020.8 1020.7 0.2
22/01:00am 14.5 9.6 11.3 81 1.7 SW 28 39 15 21 1020.7 1020.6 0.2
22/12:30am 14.6 10.5 11.4 81 1.7 SW 24 37 13 20 1020.7 1020.6 0.2
22/12:00am 13.9 8.8 10.7 81 1.7 SW 28 35 15 19 1020.7 1020.6 0.2
 
Date/Time
WST
Temp
°C
App
Temp
°C
Dew
Point
°C
Rel
Hum
%
Delta-T
°C
Wind Press
QNH
hPa
Press
MSL
hPa
Rain since
9am
mm
Dir  Spd
km/h
Gust
km/h
Spd
kts
Gust
kts
21/11:30pm 13.6 7.7 10.6 82 1.6 SW 32 43 17 23 1020.8 1020.7 0.2
21/11:00pm 14.3 9.7 11.1 81 1.7 WSW 26 35 14 19 1020.9 1020.8 0.2
21/10:30pm 14.3 9.3 11.1 81 1.7 WSW 28 37 15 20 1021.1 1021.0 0.2
21/10:00pm 14.6 8.9 11.0 79 1.9 WSW 32 41 17 22 1021.2 1021.1 0.2
21/09:30pm 14.3 8.5 10.9 80 1.8 WSW 32 41 17 22 1021.3 1021.2 0.2
21/09:00pm 14.4 8.5 11.0 80 1.8 WSW 33 44 18 24 1021.3 1021.2 0.2
21/08:30pm 14.5 9.5 10.9 79 1.9 WSW 28 35 15 19 1021.4 1021.3 0.2
21/08:00pm 14.9 9.0 10.5 75 2.3 WSW 32 43 17 23 1021.3 1021.2 0.2
21/07:30pm 14.5 8.7 10.7 78 2.0 WSW 32 43 17 23 1021.2 1021.1 0.2
21/07:00pm 14.5 9.5 10.9 79 1.9 WSW 28 35 15 19 1020.9 1020.8 0.2
21/06:30pm 14.5 8.8 11.1 80 1.8 W 32 43 17 23 1020.9 1020.8 0.2
21/06:00pm 14.0 8.5 10.4 79 1.9 W 30 43 16 23 1021.0 1020.9 0.2
21/05:30pm 14.5 9.6 10.1 75 2.3 W 26 35 14 19 1020.9 1020.8 0.2
21/05:00pm 14.2 8.5 11.0 81 1.7 W 32 41 17 22 1020.9 1020.8 0.2
21/04:30pm 15.2 9.4 9.3 68 3.1 WSW 30 39 16 21 1020.9 1020.8 0.2
21/04:00pm 15.5 10.1 9.6 68 3.1 WSW 28 37 15 20 1020.8 1020.7 0.2
21/03:30pm 16.4 11.1 10.0 66 3.4 WSW 28 35 15 19 1020.7 1020.6 0.2
21/03:00pm 15.9 10.4 9.1 64 3.5 WSW 28 37 15 20 1020.7 1020.6 0.2
21/02:30pm 16.0 10.8 9.0 63 3.6 W 26 35 14 19 1020.8 1020.7 0.2
21/02:00pm 15.2 10.3 8.4 64 3.4 WSW 24 32 13 17 1020.9 1020.8 0.2
21/01:30pm 15.1 10.0 7.6 61 3.7 WSW 24 30 13 16 1021.1 1021.0 0.2
21/01:00pm 15.3 9.9 7.8 61 3.7 WSW 26 41 14 22 1021.3 1021.2 0.2
21/12:30pm 15.1 11.1 8.1 63 3.5 SW 19 24 10 13 1021.4 1021.3 0.2
21/12:00pm 16.7 11.8 8.4 58 4.2 WSW 24 32 13 17 1021.4 1021.3 0.2
21/11:30am 15.5 11.0 8.5 63 3.6 WSW 22 33 12 18 1021.4 1021.3 0.2
21/11:00am 16.0 11.0 8.2 60 3.9 SW 24 33 13 18 1021.7 1021.6 0.2
21/10:30am 14.5 9.2 6.6 59 3.8 WSW 24 35 13 19 1021.7 1021.6 0.0
21/10:00am 14.5 9.5 6.6 59 3.8 SW 22 32 12 17 1021.7 1021.6 0.0
21/09:30am 14.4 9.4 6.3 58 3.9 SW 22 30 12 16 1021.7 1021.6 0.0
21/09:00am 14.1 8.5 5.5 56 4.1 SW 24 32 13 17 1021.6 1021.5 0.4
21/08:30am 13.3 6.9 5.2 58 3.8 SW 28 35 15 19 1021.4 1021.3 0.4
21/08:00am 13.0 6.7 5.7 61 3.4 SW 28 39 15 21 1021.2 1021.1 0.4
21/07:30am 12.6 7.0 5.3 61 3.4 SSW 24 33 13 18 1020.9 1020.8 0.4
21/07:00am 12.2 6.5 4.7 60 3.4 SW 24 41 13 22 1020.7 1020.6 0.4
21/06:30am 11.9 5.1 4.9 62 3.2 SW 30 43 16 23 1020.6 1020.5 0.4
21/06:00am 11.9 5.3 4.4 60 3.4 SSW 28 41 15 22 1020.4 1020.3 0.4
21/05:30am 11.9 5.3 4.4 60 3.4 SSW 28 44 15 24 1020.0 1019.9 0.4
21/05:00am 11.7 4.3 4.2 60 3.4 SSW 32 43 17 23 1019.9 1019.8 0.4
21/04:30am 11.6 4.7 4.8 63 3.1 SW 30 41 16 22 1019.8 1019.7 0.4
21/04:05am 11.9 4.9 6.2 68 2.7 SW 32 54 17 29 1019.5 1019.4 0.4
21/04:00am 11.6 4.4 5.0 64 3.0 SW 32 44 17 24 1019.7 1019.6 0.4
21/03:30am 11.8 4.9 4.5 61 3.3 SSW 30 46 16 25 1019.5 1019.4 0.4
21/03:00am 11.7 4.4 4.7 62 3.2 SSW 32 44 17 24 1019.4 1019.3 0.4
21/02:35am 11.4 4.1 4.4 62 3.2 SSW 32 50 17 27 1019.5 1019.4 0.4
21/02:30am 11.5 4.0 4.5 62 3.2 SSW 33 50 18 27 1019.7 1019.6 0.4
21/02:26am 11.6 4.3 4.6 62 3.2 SSW 32 50 17 27 1019.6 1019.5 0.4
21/02:00am 11.6 5.1 4.6 62 3.2 SW 28 39 15 21 1019.7 1019.6 0.4
21/01:30am 11.7 3.7 4.0 59 3.5 SW 35 48 19 26 1019.7 1019.6 0.4
21/01:03am 11.6 4.5 5.3 65 2.9 SW 32 50 17 27 1019.7 1019.6 0.4
21/01:00am 11.5 5.1 5.4 66 2.8 SSW 28 43 15 23 1019.7 1019.6 0.4
21/12:30am 11.5 4.2 4.5 62 3.2 SSW 32 43 17 23 1019.8 1019.7 0.4
21/12:01am 11.6 5.2 5.0 64 3.0 SW 28 48 15 26 1019.6 1019.5 0.4
21/12:00am 11.6 5.2 5.0 64 3.0 SW 28 43 15 23 1019.7 1019.6 0.4
 
Date/Time
WST
Temp
°C
App
Temp
°C
Dew
Point
°C
Rel
Hum
%
Delta-T
°C
Wind Press
QNH
hPa
Press
MSL
hPa
Rain since
9am
mm
Dir  Spd
km/h
Gust
km/h
Spd
kts
Gust
kts
20/11:30pm 11.6 4.8 5.3 65 2.9 SSW 30 43 16 23 1019.6 1019.5 0.4
20/11:00pm 11.3 4.4 4.7 64 3.0 SSW 30 39 16 21 1019.8 1019.7 0.4
20/10:30pm 11.4 2.9 5.3 66 2.8 SW 39 54 21 29 1019.8 1019.7 0.4
20/10:07pm 11.0 4.0 6.2 72 2.3 SW 32 50 17 27 1019.8 1019.7 0.4
20/10:00pm 10.9 3.2 5.2 68 2.6 SW 35 46 19 25 1019.7 1019.6 0.4
20/09:30pm 10.5 2.4 7.2 80 1.6 SW 39 54 21 29 1019.5 1019.4 0.4
20/09:21pm 10.6 4.4 7.7 82 1.4 SSW 30 50 16 27 1019.5 1019.4 0.4
20/09:00pm 10.8 4.0 7.1 78 1.8 SW 32 44 17 24 1019.5 1019.4 0.2
20/08:53pm 11.2 4.4 6.9 75 2.1 SW 32 50 17 27 1019.5 1019.4 0.0
20/08:30pm 11.6 3.9 6.9 73 2.3 SW 37 54 20 29 1019.3 1019.2 0.0
20/08:19pm 11.7 4.6 6.4 70 2.5 SW 33 54 18 29 1019.2 1019.1 0.0
20/08:00pm 11.4 3.9 6.5 72 2.3 SW 35 46 19 25 1019.1 1019.0 0.0
20/07:37pm 11.5 4.6 6.4 71 2.4 SW 32 50 17 27 1019.1 1019.0 0.0
20/07:30pm 11.5 4.0 6.2 70 2.5 SW 35 50 19 27 1018.8 1018.8 0.0
20/07:05pm 11.4 4.3 6.3 71 2.4 SSW 33 52 18 28 1018.3 1018.3 0.0
20/07:00pm 11.2 4.1 6.5 73 2.2 SSW 33 46 18 25 1018.4 1018.4 0.0
20/06:33pm 11.9 3.4 5.3 64 3.1 SW 39 57 21 31 1018.2 1018.2 0.0
20/06:30pm 11.7 2.4 5.1 64 3.0 SW 43 57 23 31 1018.1 1018.1 0.0
20/06:00pm 11.5 2.5 6.2 70 2.5 SW 43 61 23 33 1017.8 1017.8 0.0
20/05:33pm 11.7 2.8 7.0 73 2.3 SW 43 63 23 34 1017.1 1017.1 0.0
20/05:30pm 11.6 2.6 6.5 71 2.4 SW 43 57 23 31 1017.1 1017.1 0.0
20/05:07pm 11.8 3.9 6.3 69 2.6 SSW 37 56 20 30 1017.1 1017.1 0.0
20/05:00pm 11.9 3.6 6.2 68 2.7 SW 39 54 21 29 1016.8 1016.8 0.0
20/04:30pm 11.8 3.0 5.7 66 2.9 SSW 41 56 22 30 1016.6 1016.6 0.0
20/04:00pm 12.3 3.1 5.5 63 3.2 SW 43 61 23 33 1016.4 1016.4 0.0
20/03:34pm 12.5 1.7 4.2 57 3.8 SW 50 70 27 38 1016.0 1016.0 0.0
20/03:30pm 12.7 2.5 5.4 61 3.4 SW 48 65 26 35 1016.1 1016.1 0.0
20/03:00pm 14.1 4.8 6.0 58 3.9 SW 44 63 24 34 1015.7 1015.7 0.0
20/02:42pm 13.1 3.7 4.3 55 4.0 SW 43 65 23 35 1015.5 1015.5 0.0
20/02:30pm 13.2 3.9 5.9 61 3.5 SW 44 61 24 33 1015.5 1015.5 0.0
20/02:17pm 13.6 3.8 5.5 58 3.8 SW 46 65 25 35 1015.2 1015.2 0.0
20/02:00pm 13.3 3.5 5.2 58 3.8 SW 46 63 25 34 1015.2 1015.2 0.0
20/01:34pm 13.0 1.9 4.4 56 3.9 SW 52 70 28 38 1014.9 1014.9 0.0
20/01:30pm 13.2 2.8 5.9 61 3.5 SW 50 67 27 36 1015.0 1015.0 0.0
20/01:00pm 13.2 2.7 5.4 59 3.7 SW 50 69 27 37 1015.0 1015.0 0.0
20/12:30pm 14.2 2.8 5.0 54 4.3 SW 54 74 29 40 1014.6 1014.5 0.0
20/12:00pm 14.8 3.5 5.3 53 4.5 SW 54 78 29 42 1014.4 1014.3 0.0
20/11:30am 13.7 2.9 5.8 59 3.8 SW 52 72 28 39 1014.3 1014.2 0.0
20/11:26am 13.9 2.4 4.5 53 4.4 SW 54 72 29 39 1014.1 1014.0 0.0
20/11:00am 14.5 2.9 5.6 55 4.2 SW 56 70 30 38 1014.0 1013.9 0.0
20/10:30am 14.2 2.9 5.3 55 4.2 SW 54 74 29 40 1013.7 1013.6 0.0
20/10:02am 13.2 1.3 5.4 59 3.7 SW 57 76 31 41 1013.4 1013.3 0.0
20/10:00am 12.5 0.1 4.7 59 3.6 SW 59 76 32 41 1013.4 1013.3 0.0
20/09:30am 12.5 1.9 5.0 60 3.5 SW 50 69 27 37 1013.3 1013.2 0.0
20/09:00am 11.9 0.8 6.4 69 2.6 SW 54 74 29 40 1013.0 1012.9 6.8
20/08:32am 11.7 0.3 4.7 62 3.2 SW 54 72 29 39 1012.7 1012.6 6.6
20/08:30am 12.5 1.2 5.2 61 3.4 SW 54 69 29 37 1012.7 1012.6 6.6
20/08:00am 10.4 -2.2 5.4 71 2.3 SW 61 80 33 43 1012.2 1012.1 6.6
20/07:30am 11.0 1.2 6.9 76 2.0 SW 48 74 26 40 1012.0 1011.9 6.0
20/07:00am 11.4 1.0 5.9 69 2.6 SW 50 70 27 38 1011.5 1011.4 5.8
20/06:30am 10.7 -0.2 5.7 71 2.3 SW 52 80 28 43 1011.2 1011.1 5.8
20/06:02am 10.9 -0.2 4.4 64 2.9 SW 52 70 28 38 1010.9 1010.8 5.8
20/06:00am 10.9 -0.3 4.1 63 3.1 SW 52 69 28 37 1011.0 1010.9 5.8
20/05:37am 10.9 -0.6 4.4 64 2.9 SW 54 74 29 40 1010.6 1010.5 5.8
20/05:30am 11.0 -0.6 3.8 61 3.2 SW 54 70 29 38 1010.5 1010.4 5.8
20/05:04am 10.9 -0.8 3.2 59 3.4 SW 54 72 29 39 1010.3 1010.2 5.8
20/05:00am 10.8 -0.9 3.1 59 3.4 SW 54 70 29 38 1010.2 1010.1 5.8
20/04:30am 9.0 -2.3 5.6 79 1.6 SW 54 83 29 45 1010.3 1010.2 5.8
20/04:07am 10.9 -1.1 3.5 60 3.3 SW 56 74 30 40 1009.8 1009.7 5.8
20/04:00am 10.7 -1.3 3.7 62 3.1 SW 56 72 30 39 1009.8 1009.7 5.8
20/03:38am 10.1 -1.0 4.5 68 2.5 SW 52 74 28 40 1009.8 1009.7 5.8
20/03:30am 9.6 -1.2 5.8 77 1.7 SW 52 69 28 37 1010.2 1010.1 5.8
20/03:18am 8.9 -4.1 5.3 78 1.6 SW 63 100 34 54 1009.9 1009.8 5.8
20/03:12am 10.6 -1.5 6.2 74 2.1 SW 59 100 32 54 1009.2 1009.2 5.6
20/03:00am 10.7 -1.3 3.7 62 3.1 SW 56 74 30 40 1009.8 1009.7 5.6
20/02:30am 10.3 -2.4 3.1 61 3.1 SW 59 78 32 42 1009.7 1009.6 5.6
20/02:00am 9.7 -2.4 6.2 79 1.6 SW 59 83 32 45 1009.7 1009.6 5.6
20/01:30am 9.9 -0.7 5.1 72 2.2 SW 50 76 27 41 1010.1 1010.0 5.6
20/01:00am 9.2 -2.2 4.8 74 2.0 SW 54 76 29 41 1010.0 1009.9 5.6
20/12:30am 8.2 -3.4 5.8 85 1.1 SW 56 76 30 41 1010.4 1010.3 5.6
20/12:00am 10.4 -0.1 3.9 64 2.9 WSW 48 69 26 37 1010.3 1010.2 4.6
 
Date/Time
WST
Temp
°C
App
Temp
°C
Dew
Point
°C
Rel
Hum
%
Delta-T
°C
Wind Press
QNH
hPa
Press
MSL
hPa
Rain since
9am
mm
Dir  Spd
km/h
Gust
km/h
Spd
kts
Gust
kts
19/11:30pm 10.4 -1.4 3.0 60 3.2 WSW 54 76 29 41 1010.2 1010.1 4.6
19/11:01pm 10.3 -1.4 3.6 63 3.0 WSW 54 72 29 39 1010.4 1010.3 4.6
19/11:00pm 10.2 -1.5 3.3 62 3.0 SW 54 70 29 38 1010.4 1010.3 4.6
19/10:30pm 10.4 -0.9 3.7 63 3.0 SW 52 74 28 40 1010.3 1010.2 4.6
19/10:00pm 10.0 -0.9 3.3 63 2.9 SW 50 69 27 37 1010.4 1010.3 4.6
19/09:30pm 9.2 -1.8 3.2 66 2.6 SW 50 69 27 37 1010.6 1010.5 4.6
19/09:00pm 8.8 -4.1 3.8 71 2.2 WSW 61 89 33 48 1010.6 1010.5 4.6
19/08:56pm 9.8 -1.6 5.0 72 2.2 SW 54 87 29 47 1010.4 1010.3 4.6
19/08:35pm 9.2 -1.1 4.8 74 2.0 SW 48 69 26 37 1010.5 1010.4 4.4
19/08:30pm 8.9 -1.1 4.1 72 2.1 SW 46 63 25 34 1010.5 1010.4 4.4
19/08:09pm 8.0 -4.1 4.2 77 1.7 WSW 57 76 31 41 1010.4 1010.3 4.4
19/08:00pm 8.0 -6.4 4.9 81 1.4 SW 70 96 38 52 1010.2 1010.1 4.4
19/07:53pm 8.8 -3.1 5.2 78 1.6 SW 57 96 31 52 1009.3 1009.3 4.4
19/07:30pm 8.9 -2.6 2.5 64 2.7 SW 52 78 28 42 1009.6 1009.5 4.2
19/07:06pm 8.1 -2.7 4.3 77 1.7 SW 50 72 27 39 1009.2 1009.2 4.2
19/07:00pm 8.1 -1.7 5.2 82 1.3 SW 46 61 25 33 1009.3 1009.3 4.2
19/06:36pm 7.8 -4.7 5.8 87 0.9 SW 61 91 33 49 1008.9 1008.9 4.2
19/06:34pm 7.7 -4.5 5.5 86 1.0 SW 59 91 32 49 1008.9 1008.9 4.2
19/06:30pm 7.8 -3.9 5.3 84 1.1 SW 56 91 30 49 1008.3 1008.3 4.2
19/06:29pm 8.1 -3.2 5.6 84 1.1 SW 54 91 29 49 1008.4 1008.4 4.2
19/06:28pm 8.5 -1.9 6.1 85 1.1 SW 50 91 27 49 1008.6 1008.6 4.2
19/06:01pm 9.3 -0.2 5.1 75 1.9 SW 44 65 24 35 1008.7 1008.7 3.2
19/06:00pm 9.2 -0.3 5.0 75 1.9 SW 44 61 24 33 1008.7 1008.7 3.2
19/05:30pm 9.1 -1.4 5.7 79 1.6 WSW 50 69 27 37 1008.4 1008.4 3.0
19/05:00pm 8.3 -2.9 6.1 86 1.0 WSW 54 74 29 40 1008.2 1008.2 3.0
19/04:31pm 10.7 0.6 5.9 72 2.2 SW 48 69 26 37 1007.8 1007.8 2.0
19/04:30pm 10.6 0.8 5.2 69 2.5 SW 46 63 25 34 1007.8 1007.8 2.0
19/04:15pm 11.5 1.8 6.0 69 2.6 SW 46 69 25 37 1007.7 1007.7 2.0
19/04:14pm 11.6 2.0 6.3 70 2.5 SW 46 69 25 37 1007.7 1007.7 2.0
19/04:02pm 11.9 0.2 5.5 65 3.0 SW 56 74 30 40 1007.3 1007.3 2.0
19/04:00pm 12.2 0.5 6.0 66 2.9 SW 57 74 31 40 1007.1 1007.1 2.0
19/03:30pm 13.2 1.4 5.9 61 3.5 WSW 57 76 31 41 1006.6 1006.5 2.0
19/03:00pm 11.4 0.6 5.9 69 2.6 WSW 52 72 28 39 1006.7 1006.6 2.0
19/02:30pm 11.2 2.0 6.3 72 2.3 WSW 44 69 24 37 1007.0 1007.0 1.8
19/02:00pm 11.1 2.4 7.8 80 1.6 WSW 43 67 23 36 1006.3 1006.2 1.8
19/01:30pm 11.3 3.3 9.0 86 1.2 SW 41 61 22 33 1007.1 1007.1 1.8
19/01:04pm 10.6 0.2 7.8 83 1.4 WSW 52 70 28 38 1006.7 1006.6 1.2
19/01:00pm 10.3 -0.6 7.2 81 1.5 WSW 54 70 29 38 1006.6 1006.5 1.2
19/12:30pm 14.3 3.7 7.1 62 3.5 WSW 52 70 28 38 1006.7 1006.6 1.0
19/12:13pm 15.1 4.6 7.2 59 3.9 WSW 52 70 28 38 1006.5 1006.4 1.0
19/12:00pm 15.0 4.2 5.8 54 4.4 WSW 52 65 28 35 1006.7 1006.6 1.0
19/11:44am 15.0 5.1 6.6 57 4.1 WSW 48 69 26 37 1006.6 1006.5 1.0
19/11:30am 14.4 4.4 6.0 57 4.0 WSW 48 65 26 35 1006.7 1006.6 1.0
19/11:01am 13.9 4.8 8.5 70 2.7 WSW 46 69 25 37 1006.8 1006.7 1.0
19/11:00am 13.7 4.6 8.3 70 2.7 WSW 46 61 25 33 1006.8 1006.7 1.0
19/10:30am 14.7 6.3 9.1 69 2.9 WSW 43 61 23 33 1007.3 1007.3 0.6
19/10:10am 12.7 5.0 8.6 76 2.1 WSW 39 57 21 31 1007.3 1007.3 0.6
19/10:00am 11.9 2.8 8.4 79 1.7 WSW 46 61 25 33 1007.3 1007.3 0.6

Other formats

Comma delimited format used in spreadsheet applications
http://www.bom.gov.au/fwo/IDW60801/IDW60801.94600.axf

JavaScript Object Notation format (JSON) in row-major order
http://www.bom.gov.au/fwo/IDW60801/IDW60801.94600.json

Data quality

Most of these data are generated automatically and are frequently updated. Quality checks on data are not normally performed. It is possible for incorrect values to appear. Refer to information at About Latest Weather Observations and please check the disclaimer before using these data.